Time;durP1;ratioP1;P1;durP2;ratioP2;P2;SDS_P1;SDS_P2;PMS_P1;PMS_P2;Temp;Humidity;BMP_temperature;BMP_pressure;BME280_temperature;BME280_humidity;BME280_pressure;Samples;Min_cycle;Max_cycle;Signal;HPM_P1;HPM_P2
2022/04/03 00:02:22;;;;;;;;;3.20;2.60;;;;;0.84;67.73;100394.25;5118476;28;8944;-63
2022/04/03 00:04:49;;;;;;;;;3.00;3.00;;;;;0.87;67.92;100396.78;5118128;28;8926;-63
2022/04/03 00:07:17;;;;;;;;;3.00;3.00;;;;;0.92;67.34;100397.47;5118219;28;8860;-63
2022/04/03 00:09:45;;;;;;;;;3.80;3.80;;;;;0.94;67.63;100396.53;5117351;28;9078;-63
2022/04/03 00:12:13;;;;;;;;;3.00;3.00;;;;;0.95;67.63;100393.00;5116566;28;8845;-64
2022/04/03 00:14:40;;;;;;;;;1.80;1.80;;;;;0.99;67.80;100399.00;5117007;28;8829;-64
2022/04/03 00:17:08;;;;;;;;;1.00;1.00;;;;;1.00;67.51;100400.69;5118366;28;8822;-64
2022/04/03 00:19:36;;;;;;;;;3.20;3.00;;;;;1.00;67.47;100398.09;5117320;28;8906;-63
2022/04/03 00:22:04;;;;;;;;;2.60;2.60;;;;;1.00;67.55;100398.91;5098885;28;8826;-65
2022/04/03 00:24:31;;;;;;;;;2.20;2.20;;;;;1.00;67.70;100403.31;5097580;28;8857;-64
2022/04/03 00:26:59;;;;;;;;;1.80;1.80;;;;;0.99;67.58;100402.44;5097520;28;8847;-63
2022/04/03 00:29:27;;;;;;;;;2.60;2.60;;;;;1.00;67.88;100400.69;5098182;28;8839;-64
2022/04/03 00:31:55;;;;;;;;;3.00;1.00;;;;;1.01;67.27;100403.25;5097616;28;8836;-63
2022/04/03 00:34:23;;;;;;;;;4.20;3.80;;;;;1.02;67.21;100407.63;5097475;28;8835;-63
2022/04/03 00:36:53;;;;;;;;;3.20;3.00;;;;;1.00;67.65;100396.28;5096679;28;8831;-64
2022/04/03 00:39:21;;;;;;;;;4.00;4.00;;;;;0.98;67.67;100400.75;5097153;28;8961;-64
2022/04/03 00:41:49;;;;;;;;;0.80;0.80;;;;;0.97;67.87;100396.41;5097794;28;8832;-64
2022/04/03 00:44:17;;;;;;;;;3.00;1.00;;;;;0.97;67.65;100406.91;5097795;28;8816;-64
2022/04/03 00:46:44;;;;;;;;;1.00;1.00;;;;;0.96;68.02;100399.94;5097158;28;8837;-63
2022/04/03 00:49:13;;;;;;;;;1.00;1.00;;;;;0.96;68.02;100405.19;5097002;28;8845;-63
2022/04/03 00:51:40;;;;;;;;;1.80;1.80;;;;;0.96;67.38;100405.19;5112788;28;8853;-63
2022/04/03 00:54:09;;;;;;;;;2.60;2.60;;;;;0.94;67.47;100412.25;5118008;28;8849;-63
2022/04/03 00:56:36;;;;;;;;;3.00;3.00;;;;;0.91;67.72;100404.47;5117330;28;8821;-63
2022/04/03 00:59:04;;;;;;;;;1.80;1.80;;;;;0.89;68.43;100411.53;5117507;28;8847;-63
2022/04/03 01:01:32;;;;;;;;;1.00;1.00;;;;;0.87;67.84;100402.88;5117219;28;8841;-63
2022/04/03 01:04:00;;;;;;;;;3.60;3.00;;;;;0.88;67.64;100407.22;5117853;28;8952;-63
2022/04/03 01:06:28;;;;;;;;;2.60;2.60;;;;;0.88;67.49;100409.84;5117096;28;8960;-63
2022/04/03 01:08:56;;;;;;;;;2.80;2.80;;;;;0.90;68.17;100404.53;5117293;28;8956;-63
2022/04/03 01:11:23;;;;;;;;;0.00;0.00;;;;;0.89;67.99;100403.69;5117420;28;8857;-63
2022/04/03 01:13:51;;;;;;;;;3.00;3.00;;;;;0.89;67.73;100400.19;5117084;28;8987;-62
2022/04/03 01:16:19;;;;;;;;;1.40;1.40;;;;;0.87;68.03;100400.25;5116950;28;8833;-63
2022/04/03 01:18:47;;;;;;;;;1.80;1.80;;;;;0.86;67.86;100401.13;5117403;28;8825;-63
2022/04/03 01:21:16;;;;;;;;;3.00;3.00;;;;;0.87;67.70;100400.25;5102547;28;8812;-62
2022/04/03 01:23:44;;;;;;;;;4.00;3.00;;;;;0.87;67.89;100399.41;5114409;28;8938;-63
2022/04/03 01:26:11;;;;;;;;;2.40;2.40;;;;;0.86;67.44;100397.69;5116863;28;8934;-63
2022/04/03 01:28:39;;;;;;;;;1.00;1.00;;;;;0.88;67.99;100408.97;5117055;28;8825;-63
2022/04/03 01:31:08;;;;;;;;;1.00;1.00;;;;;0.89;68.16;100401.06;5116296;28;8941;-64
2022/04/03 01:33:36;;;;;;;;;2.20;2.20;;;;;0.89;68.18;100401.06;5116880;28;8848;-64
2022/04/03 01:36:03;;;;;;;;;2.20;2.20;;;;;0.89;67.90;100394.94;5116851;28;8833;-63
2022/04/03 01:38:31;;;;;;;;;3.00;2.20;;;;;0.87;68.24;100395.03;5116535;28;8861;-63
2022/04/03 01:40:59;;;;;;;;;3.00;3.00;;;;;0.85;67.97;100401.22;5117328;28;8841;-63
2022/04/03 01:43:26;;;;;;;;;4.00;3.60;;;;;0.83;68.54;100393.41;5116716;28;8852;-63
2022/04/03 01:45:54;;;;;;;;;2.60;1.40;;;;;0.78;67.82;100395.31;5116765;28;8840;-64
2022/04/03 01:48:22;;;;;;;;;4.60;3.80;;;;;0.75;68.56;100400.66;5116355;28;8854;-63
2022/04/03 01:50:50;;;;;;;;;3.00;1.00;;;;;0.71;68.01;100404.25;5105699;28;8808;-63
2022/04/03 01:53:18;;;;;;;;;1.00;1.00;;;;;0.69;68.57;100400.84;5095966;28;8823;-63
2022/04/03 01:55:45;;;;;;;;;1.00;1.00;;;;;0.69;68.54;100400.00;5095524;28;8912;-63
2022/04/03 01:58:16;;;;;;;;;3.00;3.00;;;;;0.68;68.76;100398.31;5096152;28;8831;-63
2022/04/03 02:00:44;;;;;;;;;3.00;3.00;;;;;0.67;68.66;100394.81;5095904;28;8835;-63
2022/04/03 02:03:11;;;;;;;;;4.60;3.40;;;;;0.66;68.31;100400.97;5096100;28;8828;-64
2022/04/03 02:05:39;;;;;;;;;0.00;0.00;;;;;0.61;68.96;100386.31;5096142;28;8836;-63
2022/04/03 02:08:07;;;;;;;;;1.00;1.00;;;;;0.56;68.63;100396.06;5096213;28;9633;-63
2022/04/03 02:10:35;;;;;;;;;0.20;0.20;;;;;0.51;69.27;100400.59;5096097;28;9532;-63
2022/04/03 02:13:03;;;;;;;;;1.40;1.40;;;;;0.47;68.80;100404.22;5095711;28;8835;-63
2022/04/03 02:15:30;;;;;;;;;3.40;3.20;;;;;0.42;68.60;100401.75;5095529;28;8850;-63
2022/04/03 02:17:58;;;;;;;;;3.00;1.80;;;;;0.39;69.03;100404.44;5096864;28;8940;-63
2022/04/03 02:20:26;;;;;;;;;3.60;3.60;;;;;0.34;68.69;100403.75;5094675;28;8994;-63
2022/04/03 02:22:54;;;;;;;;;1.00;1.00;;;;;0.29;69.31;100403.03;5095431;28;8970;-62
2022/04/03 02:25:21;;;;;;;;;1.00;1.00;;;;;0.24;69.05;100399.69;5095438;28;8835;-63
2022/04/03 02:27:49;;;;;;;;;3.00;3.00;;;;;0.20;69.64;100399.81;5095879;28;9505;-64
2022/04/03 02:30:18;;;;;;;;;4.40;4.00;;;;;0.17;69.45;100399.94;5095726;28;8827;-64
2022/04/03 02:32:46;;;;;;;;;2.60;2.60;;;;;0.12;69.20;100400.06;5095456;28;8848;-63
2022/04/03 02:35:13;;;;;;;;;3.00;3.00;;;;;0.10;69.71;100404.47;5096067;28;8832;-62
2022/04/03 02:37:42;;;;;;;;;6.20;6.20;;;;;0.09;69.64;100402.75;5095227;28;8827;-63
2022/04/03 02:40:10;;;;;;;;;3.00;2.60;;;;;0.08;69.65;100401.06;5095381;28;8832;-63
2022/04/03 02:42:38;;;;;;;;;1.00;1.00;;;;;0.03;69.74;100397.72;5097498;28;8863;-63
2022/04/03 02:45:05;;;;;;;;;1.00;1.00;;;;;0.01;69.68;100404.75;5099463;28;8823;-62
2022/04/03 02:47:33;;;;;;;;;1.00;1.00;;;;;-0.01;69.88;100400.47;5103831;28;9467;-63
2022/04/03 02:50:02;;;;;;;;;4.00;4.00;;;;;-0.05;69.87;100402.31;5120229;28;8856;-62
2022/04/03 02:52:30;;;;;;;;;0.80;0.80;;;;;-0.06;70.01;100408.47;5108086;28;9487;-63
2022/04/03 02:54:58;;;;;;;;;3.80;2.60;;;;;-0.08;69.55;100408.56;5098380;28;8835;-64
2022/04/03 02:57:25;;;;;;;;;3.00;3.00;;;;;-0.10;69.40;100405.13;5099437;28;8827;-62
2022/04/03 02:59:53;;;;;;;;;3.00;1.00;;;;;-0.13;70.23;100405.22;5099189;28;8832;-62
2022/04/03 03:02:20;;;;;;;;;4.00;4.00;;;;;-0.20;69.82;100399.31;5099760;28;9539;-63
2022/04/03 03:04:49;;;;;;;;;1.80;1.00;;;;;-0.26;70.20;100399.47;5099269;28;8890;-62
2022/04/03 03:07:16;;;;;;;;;3.40;3.00;;;;;-0.28;70.25;100408.28;5099242;28;8969;-64
2022/04/03 03:09:44;;;;;;;;;2.60;1.00;;;;;-0.30;69.84;100403.09;5099290;28;8850;-62
2022/04/03 03:12:12;;;;;;;;;3.00;1.80;;;;;-0.32;70.60;100401.44;5099365;28;8966;-62
2022/04/03 03:14:39;;;;;;;;;2.20;2.20;;;;;-0.32;70.57;100404.88;5099096;28;8823;-63
2022/04/03 03:17:07;;;;;;;;;4.40;3.60;;;;;-0.31;70.54;100403.13;5099355;28;8850;-63
2022/04/03 03:19:35;;;;;;;;;1.00;1.00;;;;;-0.30;70.20;100403.09;5099294;28;9485;-63
2022/04/03 03:22:03;;;;;;;;;3.60;3.00;;;;;-0.30;70.97;100407.47;5099196;28;8919;-63
2022/04/03 03:24:30;;;;;;;;;3.20;3.00;;;;;-0.31;70.08;100405.75;5098953;28;8959;-62
2022/04/03 03:26:58;;;;;;;;;1.00;1.00;;;;;-0.33;70.61;100402.34;5098818;28;8866;-63
2022/04/03 03:29:26;;;;;;;;;3.00;3.00;;;;;-0.35;70.54;100406.72;5098673;28;8969;-62
2022/04/03 03:31:54;;;;;;;;;3.00;1.40;;;;;-0.36;70.61;100408.50;5098648;28;8824;-63
2022/04/03 03:34:21;;;;;;;;;1.00;1.00;;;;;-0.37;70.42;100404.19;5099202;28;8835;-62
2022/04/03 03:36:49;;;;;;;;;1.00;1.00;;;;;-0.40;70.11;100404.25;5098560;28;8835;-63
2022/04/03 03:39:18;;;;;;;;;6.00;5.60;;;;;-0.42;70.29;100410.41;5098141;28;8881;-63
2022/04/03 03:41:45;;;;;;;;;1.40;1.40;;;;;-0.45;70.06;100407.91;5098454;28;8836;-62
2022/04/03 03:44:13;;;;;;;;;1.00;1.00;;;;;-0.48;70.35;100408.00;5098911;28;8992;-63
2022/04/03 03:46:41;;;;;;;;;1.40;1.40;;;;;-0.49;70.57;100403.63;5098368;28;8843;-62
2022/04/03 03:49:10;;;;;;;;;1.00;1.00;;;;;-0.49;70.50;100406.25;5115610;28;8810;-62
2022/04/03 03:51:37;;;;;;;;;3.00;3.00;;;;;-0.47;70.20;100413.16;5119005;28;9527;-62
2022/04/03 03:54:05;;;;;;;;;1.40;1.40;;;;;-0.44;70.48;100409.59;5118149;28;8963;-62
2022/04/03 03:56:33;;;;;;;;;1.40;1.40;;;;;-0.42;70.58;100413.03;5118715;28;8867;-63
2022/04/03 03:59:01;;;;;;;;;1.80;1.00;;;;;-0.40;70.37;100417.31;5118864;28;8821;-62
2022/04/03 04:01:28;;;;;;;;;0.00;0.00;;;;;-0.36;70.31;100415.47;5118963;28;8841;-62
2022/04/03 04:03:56;;;;;;;;;4.00;3.00;;;;;-0.34;70.42;100417.16;5118546;28;8856;-62
2022/04/03 04:06:24;;;;;;;;;3.40;3.00;;;;;-0.32;70.28;100417.13;5118523;28;8833;-62
2022/04/03 04:08:52;;;;;;;;;5.00;3.80;;;;;-0.30;69.69;100417.94;5118516;28;8825;-62
2022/04/03 04:11:20;;;;;;;;;1.40;1.40;;;;;-0.27;70.49;100423.06;5118546;28;8829;-63
2022/04/03 04:13:48;;;;;;;;;2.60;2.60;;;;;-0.27;69.95;100429.16;5118236;28;9519;-62
2022/04/03 04:16:15;;;;;;;;;4.00;3.00;;;;;-0.24;69.87;100425.59;5118145;28;8956;-63
2022/04/03 04:18:43;;;;;;;;;1.00;1.00;;;;;-0.21;69.63;100422.88;5104491;28;8808;-62
2022/04/03 04:21:12;;;;;;;;;2.60;1.00;;;;;-0.22;69.57;100429.91;5097633;28;9473;-63
2022/04/03 04:23:39;;;;;;;;;3.00;2.60;;;;;-0.24;69.50;100431.69;5098264;28;8857;-63
2022/04/03 04:26:07;;;;;;;;;1.80;1.00;;;;;-0.26;69.88;100428.25;5097875;28;8928;-62
2022/04/03 04:28:35;;;;;;;;;1.00;1.00;;;;;-0.28;69.70;100431.81;5097399;28;8852;-64
2022/04/03 04:31:03;;;;;;;;;1.00;1.00;;;;;-0.31;69.70;100434.53;5097906;28;8827;-63
2022/04/03 04:33:30;;;;;;;;;1.00;1.00;;;;;-0.32;70.25;100436.28;5097907;28;8827;-62
2022/04/03 04:35:58;;;;;;;;;9.00;8.20;;;;;-0.31;70.02;100437.16;5098169;28;8848;-64
2022/04/03 04:38:26;;;;;;;;;4.00;4.00;;;;;-0.32;70.20;100440.66;5097004;28;8974;-63
2022/04/03 04:40:54;;;;;;;;;0.00;0.00;;;;;-0.36;70.30;100444.25;5095722;28;8851;-63
2022/04/03 04:43:22;;;;;;;;;4.40;3.80;;;;;-0.42;70.59;100449.63;5097634;28;8835;-63
2022/04/03 04:45:50;;;;;;;;;2.60;2.60;;;;;-0.45;70.43;100444.50;5097045;28;8835;-62
2022/04/03 04:48:18;;;;;;;;;1.00;1.00;;;;;-0.46;70.11;100450.63;5109463;28;8833;-62
2022/04/03 04:50:46;;;;;;;;;3.80;3.00;;;;;-0.48;70.71;100453.28;5117104;28;8821;-63
2022/04/03 04:53:18;;;;;;;;;3.00;1.80;;;;;-0.42;70.19;100460.97;5117222;28;8833;-63
2022/04/03 04:55:45;;;;;;;;;3.00;3.00;;;;;-0.36;70.40;100460.81;5117282;28;8838;-62
2022/04/03 04:58:13;;;;;;;;;3.60;3.40;;;;;-0.37;70.40;100463.47;5117277;28;9541;-63
2022/04/03 05:00:41;;;;;;;;;3.60;3.60;;;;;-0.38;70.68;100459.13;5117363;28;9451;-62
2022/04/03 05:03:12;;;;;;;;;3.40;3.40;;;;;-0.42;70.13;100460.09;5117667;28;8829;-62
2022/04/03 05:05:40;;;;;;;;;3.80;3.80;;;;;-0.46;70.10;100453.25;5117421;28;8829;-63
2022/04/03 05:08:07;;;;;;;;;3.20;3.20;;;;;-0.49;71.13;100463.78;5117005;28;8821;-63
2022/04/03 05:10:35;;;;;;;;;4.40;3.60;;;;;-0.52;70.74;100463.88;5117082;28;8963;-63
2022/04/03 05:13:03;;;;;;;;;6.40;5.20;;;;;-0.54;70.42;100452.59;5116759;28;8829;-62
2022/04/03 05:15:30;;;;;;;;;5.60;4.40;;;;;-0.56;70.92;100467.47;5117225;28;8856;-62
2022/04/03 05:17:58;;;;;;;;;4.60;4.60;;;;;-0.55;70.92;100469.19;5114442;28;8825;-62
2022/04/03 05:20:26;;;;;;;;;3.00;3.00;;;;;-0.55;70.92;100470.03;5116680;28;8963;-63
2022/04/03 05:22:54;;;;;;;;;2.60;2.60;;;;;-0.51;71.02;100470.81;5116950;28;8833;-63
2022/04/03 05:25:22;;;;;;;;;3.20;1.00;;;;;-0.48;70.68;100460.28;5117741;28;8845;-62
2022/04/03 05:27:49;;;;;;;;;3.80;3.80;;;;;-0.43;71.14;100468.84;5116334;28;8830;-62
2022/04/03 05:30:17;;;;;;;;;3.60;3.00;;;;;-0.36;70.68;100470.41;5116396;28;8822;-62
2022/04/03 05:32:45;;;;;;;;;2.20;2.20;;;;;-0.32;70.49;100474.66;5116593;28;8849;-62
2022/04/03 05:35:13;;;;;;;;;2.60;2.20;;;;;-0.26;69.96;100477.97;5116979;28;8834;-63
2022/04/03 05:37:43;;;;;;;;;3.00;2.60;;;;;-0.23;70.42;100474.41;5116461;28;8822;-62
2022/04/03 05:40:12;;;;;;;;;1.00;1.00;;;;;-0.20;70.71;100476.94;5116690;28;8825;-63
2022/04/03 05:42:39;;;;;;;;;3.60;3.60;;;;;-0.18;70.29;100469.91;5116919;28;8846;-62
2022/04/03 05:45:07;;;;;;;;;3.00;3.00;;;;;-0.16;70.52;100482.03;5116088;28;8836;-63
2022/04/03 05:47:35;;;;;;;;;4.80;4.00;;;;;-0.14;70.19;100484.63;5106734;28;8860;-63
2022/04/03 05:50:10;;;;;;;;;3.40;3.40;;;;;-0.10;70.23;100483.63;5096152;28;8842;-62
2022/04/03 05:52:37;;;;;;;;;4.80;3.20;;;;;-0.07;69.95;100487.03;5114236;28;8822;-63
2022/04/03 05:55:06;;;;;;;;;6.00;6.00;;;;;0.02;69.74;100495.47;5095778;28;8935;-62
2022/04/03 05:57:34;;;;;;;;;3.60;3.60;;;;;0.07;69.90;100501.44;5096246;28;8855;-62
2022/04/03 06:00:02;;;;;;;;;3.00;3.00;;;;;0.10;70.19;100497.88;5096103;28;8954;-62
2022/04/03 06:02:29;;;;;;;;;2.60;2.60;;;;;0.06;69.71;100502.34;5095018;28;8863;-62
2022/04/03 06:04:57;;;;;;;;;5.60;5.20;;;;;0.02;69.91;100499.84;5095009;28;8850;-62
2022/04/03 06:07:26;;;;;;;;;7.80;7.80;;;;;-0.03;70.09;100506.13;5094810;28;8855;-63
2022/04/03 06:09:53;;;;;;;;;2.60;2.60;;;;;-0.08;70.40;100507.09;5094208;28;8978;-62
2022/04/03 06:12:21;;;;;;;;;4.40;3.60;;;;;-0.14;70.31;100509.03;5093841;28;8970;-64
2022/04/03 06:14:49;;;;;;;;;2.60;2.20;;;;;-0.19;70.85;100516.13;5093109;28;8839;-63
2022/04/03 06:17:17;;;;;;;;;3.00;3.00;;;;;-0.24;70.59;100520.63;5095093;28;8839;-62
2022/04/03 06:19:45;;;;;;;;;4.00;4.00;;;;;-0.27;70.80;100519.84;5095676;28;8842;-62
2022/04/03 06:22:13;;;;;;;;;0.60;0.40;;;;;-0.30;70.58;100519.94;5095969;28;8808;-62
2022/04/03 06:24:40;;;;;;;;;3.60;3.20;;;;;-0.33;71.13;100512.19;5095742;28;8831;-62
2022/04/03 06:27:08;;;;;;;;;7.00;5.80;;;;;-0.36;70.42;100517.47;5095753;28;8928;-62
2022/04/03 06:29:36;;;;;;;;;2.20;2.20;;;;;-0.43;70.99;100514.19;5095972;28;8863;-62
2022/04/03 06:32:04;;;;;;;;;3.80;3.80;;;;;-0.46;70.83;100519.47;5094093;28;8856;-63
2022/04/03 06:34:32;;;;;;;;;4.00;3.80;;;;;-0.45;71.34;100521.22;5094173;28;8835;-63
2022/04/03 06:36:59;;;;;;;;;6.00;6.00;;;;;-0.33;70.96;100518.25;5094167;28;8842;-63
2022/04/03 06:39:27;;;;;;;;;4.00;3.20;;;;;-0.18;70.45;100520.47;5095019;28;8882;-62
2022/04/03 06:41:55;;;;;;;;;3.00;3.00;;;;;-0.07;70.08;100514.03;5095474;28;8848;-62
2022/04/03 06:44:23;;;;;;;;;2.60;1.00;;;;;0.07;70.18;100517.13;5095672;28;8831;-62
2022/04/03 06:46:51;;;;;;;;;5.40;5.40;;;;;0.22;69.56;100519.31;5099372;28;8859;-62
2022/04/03 06:49:19;;;;;;;;;3.80;3.80;;;;;0.35;69.16;100519.81;5114032;28;8832;-63
2022/04/03 06:51:47;;;;;;;;;4.20;4.20;;;;;0.46;69.37;100523.84;5114872;28;8845;-63
2022/04/03 06:54:14;;;;;;;;;4.40;4.00;;;;;0.58;69.01;100515.63;5114701;28;8843;-64
2022/04/03 06:56:42;;;;;;;;;7.80;7.80;;;;;0.70;68.70;100511.75;5114630;28;8989;-64
2022/04/03 06:59:10;;;;;;;;;6.20;5.60;;;;;0.81;68.57;100513.16;5114446;28;9483;-64
2022/04/03 07:01:38;;;;;;;;;4.00;4.00;;;;;0.90;69.06;100507.59;5115185;28;8922;-63
2022/04/03 07:04:06;;;;;;;;;8.60;8.60;;;;;1.01;68.40;100513.34;5114573;28;8861;-63
2022/04/03 07:06:33;;;;;;;;;8.00;6.80;;;;;1.13;68.29;100507.72;5115025;28;8821;-63
2022/04/03 07:09:01;;;;;;;;;6.20;6.20;;;;;1.28;68.52;100507.22;5115698;28;8834;-63
2022/04/03 07:11:29;;;;;;;;;4.00;4.00;;;;;1.42;68.49;100510.25;5115572;28;8854;-65
2022/04/03 07:14:01;;;;;;;;;4.00;4.00;;;;;1.59;67.44;100517.56;5115720;28;9232;-64
2022/04/03 07:16:29;;;;;;;;;3.80;3.80;;;;;1.75;67.49;100516.13;5115736;28;8833;-64
2022/04/03 07:18:57;;;;;;;;;3.60;3.00;;;;;1.87;67.47;100513.91;5113929;28;8865;-64
2022/04/03 07:21:25;;;;;;;;;1.80;1.40;;;;;2.02;67.18;100509.88;5115210;28;8841;-65
2022/04/03 07:23:52;;;;;;;;;8.40;5.60;;;;;2.15;66.68;100519.91;5115117;28;8825;-64
2022/04/03 07:26:20;;;;;;;;;4.00;3.40;;;;;2.29;66.22;100517.59;5116031;28;8845;-65
2022/04/03 07:28:48;;;;;;;;;5.20;4.80;;;;;2.41;66.70;100519.78;5115812;28;8833;-64
2022/04/03 07:31:16;;;;;;;;;4.40;4.40;;;;;2.54;66.34;100510.53;5118766;28;8947;-64
2022/04/03 07:33:44;;;;;;;;;3.80;3.00;;;;;2.68;66.32;100516.09;5118560;28;8837;-64
2022/04/03 07:36:12;;;;;;;;;6.00;5.60;;;;;2.81;65.95;100509.44;5119357;28;9830;-65
2022/04/03 07:38:43;;;;;;;;;5.00;4.80;;;;;2.96;65.94;100508.81;5118623;28;8848;-64
2022/04/03 07:41:11;;;;;;;;;3.20;3.20;;;;;3.10;65.32;100516.19;5119237;28;8838;-64
2022/04/03 07:43:38;;;;;;;;;1.00;1.00;;;;;3.23;65.18;100513.00;5118917;28;8845;-64
2022/04/03 07:46:07;;;;;;;;;5.20;4.00;;;;;3.36;65.04;100514.22;5118403;28;8826;-64
2022/04/03 07:48:35;;;;;;;;;3.40;3.00;;;;;3.48;64.18;100510.22;5104234;28;8831;-64
2022/04/03 07:51:03;;;;;;;;;4.00;3.60;;;;;3.61;64.28;100506.13;5097920;28;9560;-64
2022/04/03 07:53:32;;;;;;;;;7.00;6.00;;;;;3.71;64.01;100508.28;5097138;28;9504;-65
2022/04/03 07:56:00;;;;;;;;;2.20;1.00;;;;;3.82;63.80;100519.25;5097538;28;8862;-64
2022/04/03 07:58:28;;;;;;;;;4.00;3.00;;;;;3.90;64.11;100517.13;5097368;28;8858;-65
2022/04/03 08:00:56;;;;;;;;;5.60;4.00;;;;;3.99;63.93;100524.63;5097034;28;8953;-65
2022/04/03 08:03:25;;;;;;;;;7.80;6.60;;;;;4.10;63.97;100522.41;5097406;28;8834;-65
2022/04/03 08:05:52;;;;;;;;;3.00;3.00;;;;;4.21;63.11;100526.25;5096756;28;8844;-64
2022/04/03 08:08:20;;;;;;;;;6.00;4.80;;;;;4.39;63.39;100521.91;5096906;28;8827;-65
2022/04/03 08:10:48;;;;;;;;;6.60;6.40;;;;;4.51;63.33;100518.75;5096804;28;8874;-64
2022/04/03 08:13:16;;;;;;;;;4.40;4.40;;;;;4.63;62.51;100519.03;5097054;28;8820;-64
2022/04/03 08:15:44;;;;;;;;;3.20;3.00;;;;;4.72;62.29;100521.22;5096489;28;8925;-64
2022/04/03 08:18:13;;;;;;;;;3.40;3.00;;;;;4.85;62.48;100518.88;5106625;28;8890;-64
2022/04/03 08:20:41;;;;;;;;;3.00;3.00;;;;;4.96;62.16;100521.88;5117748;28;8833;-64
2022/04/03 08:23:09;;;;;;;;;4.80;4.80;;;;;5.06;62.04;100523.13;5117674;28;8845;-64
2022/04/03 08:25:37;;;;;;;;;1.00;1.00;;;;;5.14;62.44;100518.34;5117008;28;8829;-64
2022/04/03 08:28:05;;;;;;;;;6.20;4.00;;;;;5.16;61.96;100519.13;5117483;28;8841;-64
2022/04/03 08:30:33;;;;;;;;;1.00;1.00;;;;;5.26;61.51;100525.66;5117383;28;8917;-64
2022/04/03 08:33:00;;;;;;;;;0.00;0.00;;;;;5.34;61.69;100512.94;5117847;28;8833;-64
2022/04/03 08:35:28;;;;;;;;;3.00;3.00;;;;;5.40;61.29;100517.94;5117658;28;9420;-63
2022/04/03 08:37:56;;;;;;;;;3.80;3.80;;;;;5.47;61.16;100514.06;5117102;28;8855;-62
2022/04/03 08:40:23;;;;;;;;;3.20;3.20;;;;;5.62;61.13;100508.84;5116720;28;8832;-62
2022/04/03 08:42:51;;;;;;;;;3.60;3.20;;;;;5.81;61.16;100508.81;5118031;28;8845;-62
2022/04/03 08:45:19;;;;;;;;;3.60;3.60;;;;;5.95;61.20;100511.59;5117874;28;8916;-62
2022/04/03 08:47:48;;;;;;;;;3.60;3.60;;;;;6.12;60.42;100508.91;5115676;28;8860;-62
2022/04/03 08:50:16;;;;;;;;;1.20;0.80;;;;;6.27;60.00;100506.34;5117409;28;8987;-62
2022/04/03 08:52:43;;;;;;;;;3.00;3.00;;;;;6.53;59.88;100505.78;5115319;28;9514;-62
2022/04/03 08:55:11;;;;;;;;;3.20;3.00;;;;;6.87;59.31;100504.78;5116710;28;8851;-62
2022/04/03 08:57:39;;;;;;;;;4.40;3.60;;;;;7.24;58.59;100501.78;5116831;28;8838;-62
2022/04/03 09:00:07;;;;;;;;;1.00;1.00;;;;;7.58;58.22;100504.19;5116314;28;8857;-62
2022/04/03 09:02:35;;;;;;;;;6.00;4.00;;;;;7.78;57.64;100496.78;5115864;28;8829;-64
2022/04/03 09:05:02;;;;;;;;;6.00;6.00;;;;;8.03;57.03;100508.47;5116171;28;8826;-62
2022/04/03 09:07:30;;;;;;;;;2.60;1.00;;;;;8.15;57.13;100509.53;5115949;28;8955;-61
2022/04/03 09:09:58;;;;;;;;;2.60;2.60;;;;;8.20;57.01;100508.34;5115694;28;8830;-64
2022/04/03 09:12:26;;;;;;;;;4.00;3.00;;;;;8.34;57.36;100507.47;5116367;28;8863;-64
2022/04/03 09:14:53;;;;;;;;;5.20;3.80;;;;;8.39;56.80;100502.75;5116208;28;8851;-64
2022/04/03 09:17:21;;;;;;;;;3.40;3.40;;;;;8.40;56.69;100497.34;5110623;28;8820;-64
2022/04/03 09:19:50;;;;;;;;;4.00;3.00;;;;;8.41;56.91;100503.50;5094910;28;8823;-65
2022/04/03 09:22:17;;;;;;;;;3.20;3.20;;;;;8.46;57.06;100504.06;5095375;28;8985;-65
2022/04/03 09:24:45;;;;;;;;;1.80;1.80;;;;;8.58;56.65;100501.50;5100286;28;9570;-65
2022/04/03 09:27:13;;;;;;;;;3.20;1.40;;;;;8.78;56.86;100505.56;5115147;28;8837;-64
2022/04/03 09:29:42;;;;;;;;;1.40;1.00;;;;;8.90;56.38;100495.00;5116646;28;9531;-64
2022/04/03 09:32:11;;;;;;;;;3.20;2.20;;;;;9.35;55.92;100484.06;5116959;28;8981;-64
2022/04/03 09:34:39;;;;;;;;;1.80;1.80;;;;;9.91;54.38;100482.91;5099666;28;8827;-64
2022/04/03 09:37:07;;;;;;;;;1.00;1.00;;;;;10.27;53.99;100480.41;5096187;28;8816;-63
2022/04/03 09:39:35;;;;;;;;;1.50;1.00;;;;;10.49;53.48;100472.63;5095387;28;8835;-64
2022/04/03 09:42:04;;;;;;;;;3.00;3.00;;;;;10.63;53.73;100477.81;5095882;28;8840;-64
2022/04/03 09:44:31;;;;;;;;;3.00;3.00;;;;;10.62;53.36;100482.28;5095433;28;8839;-64
2022/04/03 09:46:59;;;;;;;;;1.50;1.00;;;;;10.39;53.90;100475.06;5095890;28;8964;-64
2022/04/03 09:49:27;;;;;;;;;3.00;3.00;;;;;10.11;53.77;100480.63;5095672;28;8859;-64
2022/04/03 09:51:55;;;;;;;;;2.00;2.00;;;;;9.92;54.12;100480.16;5094219;28;8820;-64
2022/04/03 09:54:22;;;;;;;;;0.50;0.50;;;;;10.03;54.07;100477.63;5094807;28;8840;-64
2022/04/03 09:56:50;;;;;;;;;2.00;2.00;;;;;10.28;53.47;100472.34;5093958;28;8847;-64
2022/04/03 09:59:18;;;;;;;;;3.00;3.00;;;;;10.29;52.94;100465.19;5094717;28;8828;-64
2022/04/03 10:01:46;;;;;;;;;3.25;2.00;;;;;10.53;53.08;100466.09;5094965;28;8835;-65
2022/04/03 10:04:14;;;;;;;;;1.00;1.00;;;;;11.11;52.06;100463.59;5106488;28;8900;-66
2022/04/03 10:06:42;;;;;;;;;2.00;2.00;;;;;11.41;51.86;100464.00;5116529;28;8813;-64
2022/04/03 10:09:11;;;;;;;;;1.50;1.50;;;;;11.26;51.54;100465.16;5116032;28;8836;-64
2022/04/03 10:11:39;;;;;;;;;3.00;3.00;;;;;11.40;51.95;100462.31;5116074;28;8976;-65
2022/04/03 10:14:07;;;;;;;;;3.00;3.00;;;;;11.83;51.33;100463.47;5115667;28;8853;-65
2022/04/03 10:16:35;;;;;;;;;2.00;2.00;;;;;12.58;49.62;100458.34;5116094;28;8847;-62
2022/04/03 10:19:03;;;;;;;;;2.50;2.50;;;;;13.08;48.98;100457.81;5115902;28;9657;-62
2022/04/03 10:21:30;;;;;;;;;1.50;1.50;;;;;12.42;49.25;100464.06;5115405;28;8847;-62
2022/04/03 10:23:58;;;;;;;;;3.50;3.00;;;;;11.63;50.09;100461.47;5115922;28;8825;-63
2022/04/03 10:26:26;;;;;;;;;3.25;3.25;;;;;11.02;51.63;100475.81;5115805;28;8829;-62
2022/04/03 10:28:54;;;;;;;;;3.00;3.00;;;;;10.44;52.87;100472.94;5115513;28;8849;-63
2022/04/03 10:31:22;;;;;;;;;4.00;3.00;;;;;9.96;53.83;100484.28;5115910;28;8845;-63
2022/04/03 10:33:50;;;;;;;;;3.00;3.00;;;;;9.47;54.15;100479.72;5107784;28;8819;-62
2022/04/03 10:36:18;;;;;;;;;1.00;1.00;;;;;8.94;54.97;100487.69;5094035;28;8857;-64
2022/04/03 10:38:45;;;;;;;;;3.25;3.25;;;;;8.48;55.61;100484.47;5094564;28;8953;-64
2022/04/03 10:41:13;;;;;;;;;1.00;1.00;;;;;8.15;56.26;100504.22;5095198;28;8855;-65
2022/04/03 10:43:41;;;;;;;;;1.00;0.80;;;;;7.84;56.63;100502.56;5094992;28;8850;-64
2022/04/03 10:46:09;;;;;;;;;2.20;2.20;;;;;7.54;57.06;100498.22;5095256;28;8834;-66
2022/04/03 10:48:38;;;;;;;;;2.60;1.80;;;;;7.27;57.19;100504.25;5096021;28;8823;-64
2022/04/03 10:51:06;;;;;;;;;1.00;1.00;;;;;7.03;57.85;100508.28;5095540;28;8985;-64
2022/04/03 10:53:34;;;;;;;;;4.40;4.00;;;;;6.84;58.07;100507.59;5094708;28;8976;-64
2022/04/03 10:56:02;;;;;;;;;3.20;2.20;;;;;6.72;57.48;100510.91;5095197;28;8860;-64
2022/04/03 10:58:31;;;;;;;;;1.00;1.00;;;;;6.65;58.33;100509.53;5094990;28;8858;-64
2022/04/03 11:00:58;;;;;;;;;2.80;1.00;;;;;6.64;58.17;100513.13;5094631;28;8831;-64
2022/04/03 11:03:26;;;;;;;;;6.20;6.20;;;;;6.66;58.05;100516.56;5102825;28;9509;-65
2022/04/03 11:06:01;;;;;;;;;0.60;0.60;;;;;6.67;57.79;100502.41;5119117;28;9495;-64
2022/04/03 11:08:29;;;;;;;;;3.00;1.80;;;;;6.69;57.84;100505.81;5118104;28;8948;-64
2022/04/03 11:10:57;;;;;;;;;1.00;1.00;;;;;6.73;57.82;100491.44;5118810;28;8937;-64
2022/04/03 11:13:25;;;;;;;;;1.00;1.00;;;;;6.84;56.96;100497.03;5119603;28;9614;-64
2022/04/03 11:15:52;;;;;;;;;3.60;2.60;;;;;7.07;56.55;100486.88;5118760;28;8843;-65
2022/04/03 11:18:21;;;;;;;;;1.80;1.00;;;;;7.37;56.45;100490.41;5118603;28;8848;-65
2022/04/03 11:20:48;;;;;;;;;3.00;3.00;;;;;7.46;56.04;100489.00;5119171;28;8984;-64
2022/04/03 11:23:16;;;;;;;;;2.20;2.20;;;;;7.51;56.18;100482.47;5118965;28;8837;-64
2022/04/03 11:25:45;;;;;;;;;1.40;1.40;;;;;8.04;55.29;100478.34;5119150;28;8841;-65
2022/04/03 11:28:13;;;;;;;;;0.00;0.00;;;;;8.95;53.61;100462.88;5118375;28;8837;-66
2022/04/03 11:30:41;;;;;;;;;3.00;3.00;;;;;10.42;51.58;100455.38;5118261;28;9018;-64
2022/04/03 11:33:09;;;;;;;;;1.50;1.00;;;;;12.34;48.09;100437.09;5114439;28;8934;-65
2022/04/03 11:35:37;;;;;;;;;3.25;3.25;;;;;14.15;45.57;100425.44;5098219;28;8820;-65
2022/04/03 11:38:05;;;;;;;;;2.50;2.50;;;;;15.50;43.95;100421.22;5098134;28;8853;-62
2022/04/03 11:40:32;;;;;;;;;3.00;3.00;;;;;16.74;42.13;100409.19;5098157;28;9501;-62
2022/04/03 11:43:00;;;;;;;;;4.00;3.25;;;;;17.48;41.24;100400.75;5097843;28;9613;-62